sensor_id;sensor_type;location;lat;lon;timestamp;temperature;humidity
6373;DHT22;3219;51.362;7.074;2023-04-03T00:01:36;2.20;99.90
6373;DHT22;3219;51.362;7.074;2023-04-03T00:04:03;2.20;99.90
6373;DHT22;3219;51.362;7.074;2023-04-03T00:06:30;2.20;99.90
6373;DHT22;3219;51.362;7.074;2023-04-03T00:08:59;2.20;99.90
6373;DHT22;3219;51.362;7.074;2023-04-03T00:11:25;2.20;99.90
6373;DHT22;3219;51.362;7.074;2023-04-03T00:13:52;2.20;99.90
6373;DHT22;3219;51.362;7.074;2023-04-03T00:16:19;2.20;99.90
6373;DHT22;3219;51.362;7.074;2023-04-03T00:18:46;2.20;99.90
6373;DHT22;3219;51.362;7.074;2023-04-03T00:21:13;2.20;99.90
6373;DHT22;3219;51.362;7.074;2023-04-03T00:23:40;2.20;99.90
6373;DHT22;3219;51.362;7.074;2023-04-03T00:26:09;2.20;99.90
6373;DHT22;3219;51.362;7.074;2023-04-03T00:28:35;2.20;99.90
6373;DHT22;3219;51.362;7.074;2023-04-03T00:31:02;2.30;99.90
6373;DHT22;3219;51.362;7.074;2023-04-03T00:33:29;2.20;99.90
6373;DHT22;3219;51.362;7.074;2023-04-03T00:35:56;2.30;99.90
6373;DHT22;3219;51.362;7.074;2023-04-03T00:38:22;2.30;99.90
6373;DHT22;3219;51.362;7.074;2023-04-03T00:40:49;2.40;99.90
6373;DHT22;3219;51.362;7.074;2023-04-03T00:43:19;2.50;99.90
6373;DHT22;3219;51.362;7.074;2023-04-03T00:45:47;2.50;99.90
6373;DHT22;3219;51.362;7.074;2023-04-03T00:48:17;2.60;99.90
6373;DHT22;3219;51.362;7.074;2023-04-03T00:50:45;2.60;99.90
6373;DHT22;3219;51.362;7.074;2023-04-03T00:53:15;2.60;99.90
6373;DHT22;3219;51.362;7.074;2023-04-03T00:55:43;2.60;99.90
6373;DHT22;3219;51.362;7.074;2023-04-03T00:58:10;2.70;99.90
6373;DHT22;3219;51.362;7.074;2023-04-03T01:00:43;2.70;99.90
6373;DHT22;3219;51.362;7.074;2023-04-03T01:03:13;2.70;99.90
6373;DHT22;3219;51.362;7.074;2023-04-03T01:05:40;2.10;99.90
6373;DHT22;3219;51.362;7.074;2023-04-03T01:08:07;2.70;99.90
6373;DHT22;3219;51.362;7.074;2023-04-03T01:10:34;2.70;99.90
6373;DHT22;3219;51.362;7.074;2023-04-03T01:13:00;2.70;99.90
6373;DHT22;3219;51.362;7.074;2023-04-03T01:15:28;2.60;99.90
6373;DHT22;3219;51.362;7.074;2023-04-03T01:17:57;2.60;99.90
6373;DHT22;3219;51.362;7.074;2023-04-03T01:20:55;2.60;99.90
6373;DHT22;3219;51.362;7.074;2023-04-03T01:23:32;2.60;99.90
6373;DHT22;3219;51.362;7.074;2023-04-03T01:26:02;2.60;99.90
6373;DHT22;3219;51.362;7.074;2023-04-03T01:28:32;2.70;99.90
6373;DHT22;3219;51.362;7.074;2023-04-03T01:31:04;2.70;99.90
6373;DHT22;3219;51.362;7.074;2023-04-03T01:33:37;2.80;99.90
6373;DHT22;3219;51.362;7.074;2023-04-03T01:36:05;2.80;99.90
6373;DHT22;3219;51.362;7.074;2023-04-03T01:38:32;2.80;99.90
6373;DHT22;3219;51.362;7.074;2023-04-03T01:40:58;2.80;99.90
6373;DHT22;3219;51.362;7.074;2023-04-03T01:43:25;2.70;99.90
6373;DHT22;3219;51.362;7.074;2023-04-03T01:45:52;2.70;99.90
6373;DHT22;3219;51.362;7.074;2023-04-03T01:48:20;2.70;99.90
6373;DHT22;3219;51.362;7.074;2023-04-03T01:50:48;2.60;99.90
6373;DHT22;3219;51.362;7.074;2023-04-03T01:53:15;2.60;99.90
6373;DHT22;3219;51.362;7.074;2023-04-03T01:55:41;2.60;99.90
6373;DHT22;3219;51.362;7.074;2023-04-03T01:58:08;2.60;99.90
6373;DHT22;3219;51.362;7.074;2023-04-03T02:00:35;2.60;99.90
6373;DHT22;3219;51.362;7.074;2023-04-03T02:03:02;2.50;99.90
6373;DHT22;3219;51.362;7.074;2023-04-03T02:05:29;2.50;99.90
6373;DHT22;3219;51.362;7.074;2023-04-03T02:07:57;2.40;99.90
6373;DHT22;3219;51.362;7.074;2023-04-03T02:10:24;2.40;99.90
6373;DHT22;3219;51.362;7.074;2023-04-03T02:12:51;2.30;99.90
6373;DHT22;3219;51.362;7.074;2023-04-03T02:15:18;2.20;99.90
6373;DHT22;3219;51.362;7.074;2023-04-03T02:17:45;2.20;99.90
6373;DHT22;3219;51.362;7.074;2023-04-03T02:20:12;2.10;99.90
6373;DHT22;3219;51.362;7.074;2023-04-03T02:22:39;2.00;99.90
6373;DHT22;3219;51.362;7.074;2023-04-03T02:25:08;2.00;99.90
6373;DHT22;3219;51.362;7.074;2023-04-03T02:27:35;2.00;99.90
6373;DHT22;3219;51.362;7.074;2023-04-03T02:30:03;1.90;99.90
6373;DHT22;3219;51.362;7.074;2023-04-03T02:32:30;1.90;99.90
6373;DHT22;3219;51.362;7.074;2023-04-03T02:34:58;1.90;99.90
6373;DHT22;3219;51.362;7.074;2023-04-03T02:37:25;1.80;99.90
6373;DHT22;3219;51.362;7.074;2023-04-03T02:39:51;1.80;99.90
6373;DHT22;3219;51.362;7.074;2023-04-03T02:42:19;1.80;99.90
6373;DHT22;3219;51.362;7.074;2023-04-03T02:44:46;1.80;99.90
6373;DHT22;3219;51.362;7.074;2023-04-03T02:47:13;1.80;99.90
6373;DHT22;3219;51.362;7.074;2023-04-03T02:49:40;1.80;99.90
6373;DHT22;3219;51.362;7.074;2023-04-03T02:52:09;1.80;99.90
6373;DHT22;3219;51.362;7.074;2023-04-03T02:54:35;1.80;99.90
6373;DHT22;3219;51.362;7.074;2023-04-03T02:57:02;1.70;99.90
6373;DHT22;3219;51.362;7.074;2023-04-03T02:59:30;1.70;99.90
6373;DHT22;3219;51.362;7.074;2023-04-03T03:01:57;1.70;99.90
6373;DHT22;3219;51.362;7.074;2023-04-03T03:04:24;1.70;99.90
6373;DHT22;3219;51.362;7.074;2023-04-03T03:06:50;1.70;99.90
6373;DHT22;3219;51.362;7.074;2023-04-03T03:09:17;1.70;99.90
6373;DHT22;3219;51.362;7.074;2023-04-03T03:11:44;1.60;99.90
6373;DHT22;3219;51.362;7.074;2023-04-03T03:14:11;1.60;99.90
6373;DHT22;3219;51.362;7.074;2023-04-03T03:16:39;1.50;99.90
6373;DHT22;3219;51.362;7.074;2023-04-03T03:19:06;1.50;99.90
6373;DHT22;3219;51.362;7.074;2023-04-03T03:21:33;1.50;99.90
6373;DHT22;3219;51.362;7.074;2023-04-03T03:23:59;1.40;99.90
6373;DHT22;3219;51.362;7.074;2023-04-03T03:26:27;1.40;99.90
6373;DHT22;3219;51.362;7.074;2023-04-03T03:28:54;1.40;99.90
6373;DHT22;3219;51.362;7.074;2023-04-03T03:31:20;1.40;99.90
6373;DHT22;3219;51.362;7.074;2023-04-03T03:33:48;1.30;99.90
6373;DHT22;3219;51.362;7.074;2023-04-03T03:36:15;1.30;99.90
6373;DHT22;3219;51.362;7.074;2023-04-03T03:38:42;1.20;99.90
6373;DHT22;3219;51.362;7.074;2023-04-03T03:41:08;1.20;99.90
6373;DHT22;3219;51.362;7.074;2023-04-03T03:43:35;1.20;99.90
6373;DHT22;3219;51.362;7.074;2023-04-03T03:46:02;1.20;99.90
6373;DHT22;3219;51.362;7.074;2023-04-03T03:48:29;1.20;99.90
6373;DHT22;3219;51.362;7.074;2023-04-03T03:50:57;1.10;99.90
6373;DHT22;3219;51.362;7.074;2023-04-03T03:53:24;1.10;99.90
6373;DHT22;3219;51.362;7.074;2023-04-03T03:55:51;1.00;99.90
6373;DHT22;3219;51.362;7.074;2023-04-03T03:58:17;1.00;99.90
6373;DHT22;3219;51.362;7.074;2023-04-03T04:00:44;1.00;99.90
6373;DHT22;3219;51.362;7.074;2023-04-03T04:03:11;1.00;99.90
6373;DHT22;3219;51.362;7.074;2023-04-03T04:05:37;1.00;99.90
6373;DHT22;3219;51.362;7.074;2023-04-03T04:08:06;0.90;99.90
6373;DHT22;3219;51.362;7.074;2023-04-03T04:10:33;0.90;99.90
6373;DHT22;3219;51.362;7.074;2023-04-03T04:12:59;0.90;99.90
6373;DHT22;3219;51.362;7.074;2023-04-03T04:15:26;0.90;99.90
6373;DHT22;3219;51.362;7.074;2023-04-03T04:17:53;0.90;99.90
6373;DHT22;3219;51.362;7.074;2023-04-03T04:20:20;0.90;99.90
6373;DHT22;3219;51.362;7.074;2023-04-03T04:22:47;0.90;99.90
6373;DHT22;3219;51.362;7.074;2023-04-03T04:25:15;0.90;99.90
6373;DHT22;3219;51.362;7.074;2023-04-03T04:27:42;0.90;99.90
6373;DHT22;3219;51.362;7.074;2023-04-03T04:30:10;0.90;99.90
6373;DHT22;3219;51.362;7.074;2023-04-03T04:32:37;0.90;99.90
6373;DHT22;3219;51.362;7.074;2023-04-03T04:35:04;0.80;99.90
6373;DHT22;3219;51.362;7.074;2023-04-03T04:37:31;0.80;99.90
6373;DHT22;3219;51.362;7.074;2023-04-03T04:39:58;0.70;99.90
6373;DHT22;3219;51.362;7.074;2023-04-03T04:42:26;0.70;99.90
6373;DHT22;3219;51.362;7.074;2023-04-03T04:44:53;0.70;99.90
6373;DHT22;3219;51.362;7.074;2023-04-03T04:47:19;0.60;99.90
6373;DHT22;3219;51.362;7.074;2023-04-03T04:49:46;0.60;99.90
6373;DHT22;3219;51.362;7.074;2023-04-03T04:52:13;0.60;99.90
6373;DHT22;3219;51.362;7.074;2023-04-03T04:54:40;0.60;99.90
6373;DHT22;3219;51.362;7.074;2023-04-03T04:57:07;0.60;99.90
6373;DHT22;3219;51.362;7.074;2023-04-03T04:59:35;0.60;99.90
6373;DHT22;3219;51.362;7.074;2023-04-03T05:02:02;0.60;99.90
6373;DHT22;3219;51.362;7.074;2023-04-03T05:04:28;0.60;99.90
6373;DHT22;3219;51.362;7.074;2023-04-03T05:06:55;0.60;99.90
6373;DHT22;3219;51.362;7.074;2023-04-03T05:09:22;0.50;99.90
6373;DHT22;3219;51.362;7.074;2023-04-03T05:11:49;0.50;99.90
6373;DHT22;3219;51.362;7.074;2023-04-03T05:14:16;0.50;99.90
6373;DHT22;3219;51.362;7.074;2023-04-03T05:16:44;0.60;99.90
6373;DHT22;3219;51.362;7.074;2023-04-03T05:19:11;0.50;99.90
6373;DHT22;3219;51.362;7.074;2023-04-03T05:21:37;0.60;99.90
6373;DHT22;3219;51.362;7.074;2023-04-03T05:24:05;0.60;99.90
6373;DHT22;3219;51.362;7.074;2023-04-03T05:26:34;0.60;99.90
6373;DHT22;3219;51.362;7.074;2023-04-03T05:29:01;0.60;99.90
6373;DHT22;3219;51.362;7.074;2023-04-03T05:31:28;0.60;99.90
6373;DHT22;3219;51.362;7.074;2023-04-03T05:33:57;0.60;99.90
6373;DHT22;3219;51.362;7.074;2023-04-03T05:36:24;0.70;99.90
6373;DHT22;3219;51.362;7.074;2023-04-03T05:38:51;0.80;99.90
6373;DHT22;3219;51.362;7.074;2023-04-03T05:41:18;1.20;99.90
6373;DHT22;3219;51.362;7.074;2023-04-03T05:43:46;1.80;99.90
6373;DHT22;3219;51.362;7.074;2023-04-03T05:46:14;2.00;99.90
6373;DHT22;3219;51.362;7.074;2023-04-03T05:48:41;1.90;99.90
6373;DHT22;3219;51.362;7.074;2023-04-03T05:51:14;1.90;99.90
6373;DHT22;3219;51.362;7.074;2023-04-03T05:53:43;2.10;99.90
6373;DHT22;3219;51.362;7.074;2023-04-03T05:56:10;3.30;99.90
6373;DHT22;3219;51.362;7.074;2023-04-03T05:58:36;4.10;99.90
6373;DHT22;3219;51.362;7.074;2023-04-03T06:01:04;4.90;99.90
6373;DHT22;3219;51.362;7.074;2023-04-03T06:03:31;5.90;99.90
6373;DHT22;3219;51.362;7.074;2023-04-03T06:05:57;6.70;99.90
6373;DHT22;3219;51.362;7.074;2023-04-03T06:08:26;7.30;99.90
6373;DHT22;3219;51.362;7.074;2023-04-03T06:10:53;8.10;99.90
6373;DHT22;3219;51.362;7.074;2023-04-03T06:13:19;8.50;99.90
6373;DHT22;3219;51.362;7.074;2023-04-03T06:15:46;8.70;99.90
6373;DHT22;3219;51.362;7.074;2023-04-03T06:18:14;8.80;99.90
6373;DHT22;3219;51.362;7.074;2023-04-03T06:20:41;9.10;99.90
6373;DHT22;3219;51.362;7.074;2023-04-03T06:23:08;8.90;99.90
6373;DHT22;3219;51.362;7.074;2023-04-03T06:25:37;9.10;99.90
6373;DHT22;3219;51.362;7.074;2023-04-03T06:28:03;9.60;99.90
6373;DHT22;3219;51.362;7.074;2023-04-03T06:30:31;10.00;99.90
6373;DHT22;3219;51.362;7.074;2023-04-03T06:32:57;10.10;99.90
6373;DHT22;3219;51.362;7.074;2023-04-03T06:35:24;10.20;99.90
6373;DHT22;3219;51.362;7.074;2023-04-03T06:37:52;10.20;99.90
6373;DHT22;3219;51.362;7.074;2023-04-03T06:40:21;9.60;99.90
6373;DHT22;3219;51.362;7.074;2023-04-03T06:42:50;9.30;99.90
6373;DHT22;3219;51.362;7.074;2023-04-03T06:45:17;9.20;99.90
6373;DHT22;3219;51.362;7.074;2023-04-03T06:47:43;9.00;99.90
6373;DHT22;3219;51.362;7.074;2023-04-03T06:50:12;8.40;99.90
6373;DHT22;3219;51.362;7.074;2023-04-03T06:52:40;7.20;99.90
6373;DHT22;3219;51.362;7.074;2023-04-03T06:55:08;6.00;99.90
6373;DHT22;3219;51.362;7.074;2023-04-03T06:57:35;5.20;99.90
6373;DHT22;3219;51.362;7.074;2023-04-03T07:00:04;4.50;99.90
6373;DHT22;3219;51.362;7.074;2023-04-03T07:02:32;5.40;99.90
6373;DHT22;3219;51.362;7.074;2023-04-03T07:04:59;7.00;99.90
6373;DHT22;3219;51.362;7.074;2023-04-03T07:07:25;8.20;99.90
6373;DHT22;3219;51.362;7.074;2023-04-03T07:09:52;9.30;99.90
6373;DHT22;3219;51.362;7.074;2023-04-03T07:12:19;10.50;99.90
6373;DHT22;3219;51.362;7.074;2023-04-03T07:14:46;10.90;99.90
6373;DHT22;3219;51.362;7.074;2023-04-03T07:17:14;10.70;99.90
6373;DHT22;3219;51.362;7.074;2023-04-03T07:19:41;10.40;99.90
6373;DHT22;3219;51.362;7.074;2023-04-03T07:22:08;9.60;99.90
6373;DHT22;3219;51.362;7.074;2023-04-03T07:24:36;9.40;99.90
6373;DHT22;3219;51.362;7.074;2023-04-03T07:27:03;8.90;99.90
6373;DHT22;3219;51.362;7.074;2023-04-03T07:29:30;8.50;99.90
6373;DHT22;3219;51.362;7.074;2023-04-03T07:31:57;8.30;99.90
6373;DHT22;3219;51.362;7.074;2023-04-03T07:34:25;7.90;99.90
6373;DHT22;3219;51.362;7.074;2023-04-03T07:36:51;8.00;99.90
6373;DHT22;3219;51.362;7.074;2023-04-03T07:39:18;8.80;99.90
6373;DHT22;3219;51.362;7.074;2023-04-03T07:41:45;9.80;99.90
6373;DHT22;3219;51.362;7.074;2023-04-03T07:44:12;9.80;99.90
6373;DHT22;3219;51.362;7.074;2023-04-03T07:46:39;10.10;99.90
6373;DHT22;3219;51.362;7.074;2023-04-03T07:49:05;10.60;99.90
6373;DHT22;3219;51.362;7.074;2023-04-03T07:51:34;10.80;99.90
6373;DHT22;3219;51.362;7.074;2023-04-03T07:54:01;10.70;99.90
6373;DHT22;3219;51.362;7.074;2023-04-03T07:56:28;10.10;99.90
6373;DHT22;3219;51.362;7.074;2023-04-03T07:58:55;9.30;99.90
6373;DHT22;3219;51.362;7.074;2023-04-03T08:01:21;8.50;99.90
6373;DHT22;3219;51.362;7.074;2023-04-03T08:03:48;7.90;99.90
6373;DHT22;3219;51.362;7.074;2023-04-03T08:06:16;7.40;99.90
6373;DHT22;3219;51.362;7.074;2023-04-03T08:08:44;7.00;99.90
6373;DHT22;3219;51.362;7.074;2023-04-03T08:11:11;6.90;99.90
6373;DHT22;3219;51.362;7.074;2023-04-03T08:13:38;7.80;99.90
6373;DHT22;3219;51.362;7.074;2023-04-03T08:16:08;8.80;99.90
6373;DHT22;3219;51.362;7.074;2023-04-03T08:18:35;8.60;99.90
6373;DHT22;3219;51.362;7.074;2023-04-03T08:21:05;8.50;99.90
6373;DHT22;3219;51.362;7.074;2023-04-03T08:23:33;8.60;99.90
6373;DHT22;3219;51.362;7.074;2023-04-03T08:26:05;8.90;99.90
6373;DHT22;3219;51.362;7.074;2023-04-03T08:28:32;9.00;99.90
6373;DHT22;3219;51.362;7.074;2023-04-03T08:31:03;8.10;99.90
6373;DHT22;3219;51.362;7.074;2023-04-03T08:33:31;6.70;99.90
6373;DHT22;3219;51.362;7.074;2023-04-03T08:35:58;5.80;99.90
6373;DHT22;3219;51.362;7.074;2023-04-03T08:38:25;5.20;99.90
6373;DHT22;3219;51.362;7.074;2023-04-03T08:41:04;4.90;99.90
6373;DHT22;3219;51.362;7.074;2023-04-03T08:43:39;4.90;99.90
6373;DHT22;3219;51.362;7.074;2023-04-03T08:46:11;4.80;99.90
6373;DHT22;3219;51.362;7.074;2023-04-03T08:48:41;4.60;99.90
6373;DHT22;3219;51.362;7.074;2023-04-03T08:51:13;5.00;99.90
6373;DHT22;3219;51.362;7.074;2023-04-03T08:53:43;4.80;99.90
6373;DHT22;3219;51.362;7.074;2023-04-03T08:56:14;5.00;99.90
6373;DHT22;3219;51.362;7.074;2023-04-03T08:58:48;5.10;99.90
6373;DHT22;3219;51.362;7.074;2023-04-03T09:01:19;5.10;99.90
6373;DHT22;3219;51.362;7.074;2023-04-03T09:03:47;5.10;99.90
6373;DHT22;3219;51.362;7.074;2023-04-03T09:06:17;5.30;99.90
6373;DHT22;3219;51.362;7.074;2023-04-03T09:08:46;5.40;99.90
6373;DHT22;3219;51.362;7.074;2023-04-03T09:11:21;5.50;99.90
6373;DHT22;3219;51.362;7.074;2023-04-03T09:13:54;5.20;99.90
6373;DHT22;3219;51.362;7.074;2023-04-03T09:16:31;5.10;99.90
6373;DHT22;3219;51.362;7.074;2023-04-03T09:19:10;5.20;99.90
6373;DHT22;3219;51.362;7.074;2023-04-03T09:21:41;5.20;99.90
6373;DHT22;3219;51.362;7.074;2023-04-03T09:24:10;5.30;99.90
6373;DHT22;3219;51.362;7.074;2023-04-03T09:26:44;5.60;99.90
6373;DHT22;3219;51.362;7.074;2023-04-03T09:29:17;5.70;99.90
6373;DHT22;3219;51.362;7.074;2023-04-03T09:31:46;5.80;99.90
6373;DHT22;3219;51.362;7.074;2023-04-03T09:34:22;5.90;99.90
6373;DHT22;3219;51.362;7.074;2023-04-03T09:36:50;5.80;99.90
6373;DHT22;3219;51.362;7.074;2023-04-03T09:39:19;5.60;99.90
6373;DHT22;3219;51.362;7.074;2023-04-03T09:42:00;5.50;99.90
6373;DHT22;3219;51.362;7.074;2023-04-03T09:44:29;5.60;99.90
6373;DHT22;3219;51.362;7.074;2023-04-03T09:46:57;5.80;99.90
6373;DHT22;3219;51.362;7.074;2023-04-03T09:49:24;5.80;99.90
6373;DHT22;3219;51.362;7.074;2023-04-03T09:51:51;5.90;99.90
6373;DHT22;3219;51.362;7.074;2023-04-03T09:54:39;6.00;99.90
6373;DHT22;3219;51.362;7.074;2023-04-03T09:57:10;6.00;99.90
6373;DHT22;3219;51.362;7.074;2023-04-03T09:59:44;6.10;99.90
6373;DHT22;3219;51.362;7.074;2023-04-03T10:02:37;6.20;99.90
6373;DHT22;3219;51.362;7.074;2023-04-03T10:05:25;6.30;99.90
6373;DHT22;3219;51.362;7.074;2023-04-03T10:08:07;6.50;99.90
6373;DHT22;3219;51.362;7.074;2023-04-03T10:10:35;6.70;99.90
6373;DHT22;3219;51.362;7.074;2023-04-03T10:13:09;6.80;99.90
6373;DHT22;3219;51.362;7.074;2023-04-03T10:15:41;6.60;99.90
6373;DHT22;3219;51.362;7.074;2023-04-03T10:18:24;6.60;99.90
6373;DHT22;3219;51.362;7.074;2023-04-03T10:20:55;6.60;99.90
6373;DHT22;3219;51.362;7.074;2023-04-03T10:23:27;6.60;99.90
6373;DHT22;3219;51.362;7.074;2023-04-03T10:26:06;6.60;99.90
6373;DHT22;3219;51.362;7.074;2023-04-03T10:28:43;6.60;99.90
6373;DHT22;3219;51.362;7.074;2023-04-03T10:31:17;6.40;99.90
6373;DHT22;3219;51.362;7.074;2023-04-03T10:33:55;6.40;99.90
6373;DHT22;3219;51.362;7.074;2023-04-03T10:36:33;6.40;99.90
6373;DHT22;3219;51.362;7.074;2023-04-03T10:39:08;6.30;99.90
6373;DHT22;3219;51.362;7.074;2023-04-03T10:41:56;6.50;99.90
6373;DHT22;3219;51.362;7.074;2023-04-03T10:44:35;6.60;99.90
6373;DHT22;3219;51.362;7.074;2023-04-03T10:47:09;6.80;99.90
6373;DHT22;3219;51.362;7.074;2023-04-03T10:49:48;6.90;99.90
6373;DHT22;3219;51.362;7.074;2023-04-03T10:52:21;6.80;99.90
6373;DHT22;3219;51.362;7.074;2023-04-03T10:54:56;6.60;99.90
6373;DHT22;3219;51.362;7.074;2023-04-03T10:57:25;6.60;99.90
6373;DHT22;3219;51.362;7.074;2023-04-03T10:59:57;6.70;99.90
6373;DHT22;3219;51.362;7.074;2023-04-03T11:02:28;6.80;99.90
6373;DHT22;3219;51.362;7.074;2023-04-03T11:05:01;6.90;99.90
6373;DHT22;3219;51.362;7.074;2023-04-03T11:07:30;6.90;99.90
6373;DHT22;3219;51.362;7.074;2023-04-03T11:10:02;6.80;99.90
6373;DHT22;3219;51.362;7.074;2023-04-03T11:12:36;6.80;99.90
6373;DHT22;3219;51.362;7.074;2023-04-03T11:15:12;6.90;99.90
6373;DHT22;3219;51.362;7.074;2023-04-03T11:17:43;7.00;99.90
6373;DHT22;3219;51.362;7.074;2023-04-03T11:20:17;6.70;99.90
6373;DHT22;3219;51.362;7.074;2023-04-03T11:22:48;6.70;99.90
6373;DHT22;3219;51.362;7.074;2023-04-03T11:25:18;6.70;99.90
6373;DHT22;3219;51.362;7.074;2023-04-03T11:27:49;6.70;99.90
6373;DHT22;3219;51.362;7.074;2023-04-03T11:30:21;6.80;99.90
6373;DHT22;3219;51.362;7.074;2023-04-03T11:33:05;6.80;99.90
6373;DHT22;3219;51.362;7.074;2023-04-03T11:35:43;6.90;99.90
6373;DHT22;3219;51.362;7.074;2023-04-03T11:38:15;7.10;99.90
6373;DHT22;3219;51.362;7.074;2023-04-03T11:40:44;7.20;99.90
6373;DHT22;3219;51.362;7.074;2023-04-03T11:43:22;7.00;99.90
6373;DHT22;3219;51.362;7.074;2023-04-03T11:45:54;7.00;99.90
6373;DHT22;3219;51.362;7.074;2023-04-03T11:48:43;7.00;99.90
6373;DHT22;3219;51.362;7.074;2023-04-03T11:51:40;7.10;99.90
6373;DHT22;3219;51.362;7.074;2023-04-03T12:07:02;7.10;99.90
6373;DHT22;3219;51.362;7.074;2023-04-03T12:10:15;7.20;99.90
6373;DHT22;3219;51.362;7.074;2023-04-03T12:12:43;7.10;99.90
6373;DHT22;3219;51.362;7.074;2023-04-03T12:18:43;6.90;99.90
6373;DHT22;3219;51.362;7.074;2023-04-03T12:21:11;7.00;99.90
6373;DHT22;3219;51.362;7.074;2023-04-03T12:24:04;7.00;99.90
6373;DHT22;3219;51.362;7.074;2023-04-03T12:26:36;7.10;99.90
6373;DHT22;3219;51.362;7.074;2023-04-03T12:29:13;7.20;99.90
6373;DHT22;3219;51.362;7.074;2023-04-03T12:31:46;7.30;99.90
6373;DHT22;3219;51.362;7.074;2023-04-03T12:34:24;7.30;99.90
6373;DHT22;3219;51.362;7.074;2023-04-03T12:36:59;7.10;99.90
6373;DHT22;3219;51.362;7.074;2023-04-03T12:39:42;7.00;99.90
6373;DHT22;3219;51.362;7.074;2023-04-03T12:42:32;7.00;99.90
6373;DHT22;3219;51.362;7.074;2023-04-03T12:45:13;7.00;99.90
6373;DHT22;3219;51.362;7.074;2023-04-03T12:47:43;7.10;99.90
6373;DHT22;3219;51.362;7.074;2023-04-03T12:50:18;7.10;99.90
6373;DHT22;3219;51.362;7.074;2023-04-03T12:52:57;7.20;99.90
6373;DHT22;3219;51.362;7.074;2023-04-03T12:55:27;7.10;99.90
6373;DHT22;3219;51.362;7.074;2023-04-03T12:57:54;7.00;99.90
6373;DHT22;3219;51.362;7.074;2023-04-03T13:00:30;6.90;99.90
6373;DHT22;3219;51.362;7.074;2023-04-03T13:02:59;6.90;99.90
6373;DHT22;3219;51.362;7.074;2023-04-03T13:05:26;6.90;99.90
6373;DHT22;3219;51.362;7.074;2023-04-03T13:07:58;6.90;99.90
6373;DHT22;3219;51.362;7.074;2023-04-03T13:10:26;7.00;99.90
6373;DHT22;3219;51.362;7.074;2023-04-03T13:12:55;7.00;99.90
6373;DHT22;3219;51.362;7.074;2023-04-03T13:15:25;7.00;99.90
6373;DHT22;3219;51.362;7.074;2023-04-03T13:17:52;7.00;99.90
6373;DHT22;3219;51.362;7.074;2023-04-03T13:20:23;7.10;99.90
6373;DHT22;3219;51.362;7.074;2023-04-03T13:22:55;7.20;99.90
6373;DHT22;3219;51.362;7.074;2023-04-03T13:25:24;7.10;99.90
6373;DHT22;3219;51.362;7.074;2023-04-03T13:27:54;7.00;99.90
6373;DHT22;3219;51.362;7.074;2023-04-03T13:30:28;7.00;99.90
6373;DHT22;3219;51.362;7.074;2023-04-03T13:32:56;7.10;99.90
6373;DHT22;3219;51.362;7.074;2023-04-03T13:35:35;7.10;99.90
6373;DHT22;3219;51.362;7.074;2023-04-03T13:38:06;7.20;99.90
6373;DHT22;3219;51.362;7.074;2023-04-03T13:40:33;7.10;99.90
6373;DHT22;3219;51.362;7.074;2023-04-03T13:43:05;7.00;99.90
6373;DHT22;3219;51.362;7.074;2023-04-03T13:45:33;7.00;99.90
6373;DHT22;3219;51.362;7.074;2023-04-03T13:48:15;7.00;99.90
6373;DHT22;3219;51.362;7.074;2023-04-03T13:50:55;7.00;99.90
6373;DHT22;3219;51.362;7.074;2023-04-03T13:53:23;7.00;99.90
6373;DHT22;3219;51.362;7.074;2023-04-03T13:55:56;7.00;99.90
6373;DHT22;3219;51.362;7.074;2023-04-03T13:58:26;7.00;99.90
6373;DHT22;3219;51.362;7.074;2023-04-03T14:00:56;7.10;99.90
6373;DHT22;3219;51.362;7.074;2023-04-03T14:03:27;7.00;99.90
6373;DHT22;3219;51.362;7.074;2023-04-03T14:05:54;7.00;99.90
6373;DHT22;3219;51.362;7.074;2023-04-03T14:08:21;6.90;99.90
6373;DHT22;3219;51.362;7.074;2023-04-03T14:10:49;7.00;99.90
6373;DHT22;3219;51.362;7.074;2023-04-03T14:13:18;6.90;99.90
6373;DHT22;3219;51.362;7.074;2023-04-03T14:15:47;6.90;99.90
6373;DHT22;3219;51.362;7.074;2023-04-03T14:18:17;6.90;99.90
6373;DHT22;3219;51.362;7.074;2023-04-03T14:20:45;6.80;99.90
6373;DHT22;3219;51.362;7.074;2023-04-03T14:23:11;6.80;99.90
6373;DHT22;3219;51.362;7.074;2023-04-03T14:25:38;6.80;99.90
6373;DHT22;3219;51.362;7.074;2023-04-03T14:28:16;7.00;99.90
6373;DHT22;3219;51.362;7.074;2023-04-03T14:30:44;6.90;99.90
6373;DHT22;3219;51.362;7.074;2023-04-03T14:33:14;6.90;99.90
6373;DHT22;3219;51.362;7.074;2023-04-03T14:35:42;6.80;99.90
6373;DHT22;3219;51.362;7.074;2023-04-03T14:38:21;6.90;99.90
6373;DHT22;3219;51.362;7.074;2023-04-03T14:40:49;6.90;99.90
6373;DHT22;3219;51.362;7.074;2023-04-03T14:43:16;6.90;99.90
6373;DHT22;3219;51.362;7.074;2023-04-03T14:45:44;6.90;99.90
6373;DHT22;3219;51.362;7.074;2023-04-03T14:48:18;6.90;99.90
6373;DHT22;3219;51.362;7.074;2023-04-03T14:50:45;6.90;99.90
6373;DHT22;3219;51.362;7.074;2023-04-03T14:53:13;7.00;99.90
6373;DHT22;3219;51.362;7.074;2023-04-03T14:55:41;7.00;99.90
6373;DHT22;3219;51.362;7.074;2023-04-03T14:58:12;7.00;99.90
6373;DHT22;3219;51.362;7.074;2023-04-03T15:00:39;7.00;99.90
6373;DHT22;3219;51.362;7.074;2023-04-03T15:03:12;7.00;99.90
6373;DHT22;3219;51.362;7.074;2023-04-03T15:05:41;6.90;99.90
6373;DHT22;3219;51.362;7.074;2023-04-03T15:08:19;7.00;99.90
6373;DHT22;3219;51.362;7.074;2023-04-03T15:10:47;7.00;99.90
6373;DHT22;3219;51.362;7.074;2023-04-03T15:13:14;7.10;99.90
6373;DHT22;3219;51.362;7.074;2023-04-03T15:15:41;7.10;99.90
6373;DHT22;3219;51.362;7.074;2023-04-03T15:18:15;7.10;99.90
6373;DHT22;3219;51.362;7.074;2023-04-03T15:20:44;7.00;99.90
6373;DHT22;3219;51.362;7.074;2023-04-03T15:23:12;6.90;99.90
6373;DHT22;3219;51.362;7.074;2023-04-03T15:25:41;6.80;99.90
6373;DHT22;3219;51.362;7.074;2023-04-03T15:28:09;6.70;99.90
6373;DHT22;3219;51.362;7.074;2023-04-03T15:30:39;6.70;99.90
6373;DHT22;3219;51.362;7.074;2023-04-03T15:33:06;6.70;99.90
6373;DHT22;3219;51.362;7.074;2023-04-03T15:35:33;6.70;99.90
6373;DHT22;3219;51.362;7.074;2023-04-03T15:38:01;6.70;99.90
6373;DHT22;3219;51.362;7.074;2023-04-03T15:40:28;6.80;99.90
6373;DHT22;3219;51.362;7.074;2023-04-03T15:42:55;6.80;99.90
6373;DHT22;3219;51.362;7.074;2023-04-03T15:45:22;6.70;99.90
6373;DHT22;3219;51.362;7.074;2023-04-03T15:47:48;6.80;99.90
6373;DHT22;3219;51.362;7.074;2023-04-03T15:50:16;6.70;99.90
6373;DHT22;3219;51.362;7.074;2023-04-03T15:52:43;6.70;99.90
6373;DHT22;3219;51.362;7.074;2023-04-03T15:55:11;6.70;99.90
6373;DHT22;3219;51.362;7.074;2023-04-03T15:57:37;6.60;99.90
6373;DHT22;3219;51.362;7.074;2023-04-03T16:00:05;6.60;99.90
6373;DHT22;3219;51.362;7.074;2023-04-03T16:02:34;6.60;99.90
6373;DHT22;3219;51.362;7.074;2023-04-03T16:05:01;6.60;99.90
6373;DHT22;3219;51.362;7.074;2023-04-03T16:07:27;6.60;99.90
6373;DHT22;3219;51.362;7.074;2023-04-03T16:09:54;6.60;99.90
6373;DHT22;3219;51.362;7.074;2023-04-03T16:12:23;6.60;99.90
6373;DHT22;3219;51.362;7.074;2023-04-03T16:14:50;6.60;99.90
6373;DHT22;3219;51.362;7.074;2023-04-03T16:17:17;6.60;99.90
6373;DHT22;3219;51.362;7.074;2023-04-03T16:19:44;6.60;99.90
6373;DHT22;3219;51.362;7.074;2023-04-03T16:22:10;6.60;99.90
6373;DHT22;3219;51.362;7.074;2023-04-03T16:24:37;6.50;99.90
6373;DHT22;3219;51.362;7.074;2023-04-03T16:27:04;6.50;99.90
6373;DHT22;3219;51.362;7.074;2023-04-03T16:29:32;6.50;99.90
6373;DHT22;3219;51.362;7.074;2023-04-03T16:31:59;6.50;99.90
6373;DHT22;3219;51.362;7.074;2023-04-03T16:34:26;6.60;99.90
6373;DHT22;3219;51.362;7.074;2023-04-03T16:36:55;6.50;99.90
6373;DHT22;3219;51.362;7.074;2023-04-03T16:39:22;6.50;99.90
6373;DHT22;3219;51.362;7.074;2023-04-03T16:41:49;6.50;99.90
6373;DHT22;3219;51.362;7.074;2023-04-03T16:44:16;6.50;99.90
6373;DHT22;3219;51.362;7.074;2023-04-03T16:46:44;6.50;99.90
6373;DHT22;3219;51.362;7.074;2023-04-03T16:49:11;6.50;99.90